sensor_id;sensor_type;location;lat;lon;timestamp;P1;durP1;ratioP1;P2;durP2;ratioP2
4754;SDS011;2391;47.212;7.542;2023-01-23T00:01:23;2.27;;;2.17;;
4754;SDS011;2391;47.212;7.542;2023-01-23T00:03:51;3.20;;;2.47;;
4754;SDS011;2391;47.212;7.542;2023-01-23T00:06:18;1.80;;;1.70;;
4754;SDS011;2391;47.212;7.542;2023-01-23T00:08:44;2.57;;;2.37;;
4754;SDS011;2391;47.212;7.542;2023-01-23T00:11:12;2.43;;;2.23;;
4754;SDS011;2391;47.212;7.542;2023-01-23T00:13:40;2.07;;;1.97;;
4754;SDS011;2391;47.212;7.542;2023-01-23T00:16:07;2.63;;;2.43;;
4754;SDS011;2391;47.212;7.542;2023-01-23T00:18:34;2.00;;;1.90;;
4754;SDS011;2391;47.212;7.542;2023-01-23T00:21:08;2.60;;;2.40;;
4754;SDS011;2391;47.212;7.542;2023-01-23T00:23:36;2.63;;;2.43;;
4754;SDS011;2391;47.212;7.542;2023-01-23T00:26:03;2.47;;;2.30;;
4754;SDS011;2391;47.212;7.542;2023-01-23T00:28:35;2.40;;;2.20;;
4754;SDS011;2391;47.212;7.542;2023-01-23T00:31:04;2.10;;;2.00;;
4754;SDS011;2391;47.212;7.542;2023-01-23T00:33:32;2.30;;;2.20;;
4754;SDS011;2391;47.212;7.542;2023-01-23T00:35:58;2.73;;;2.57;;
4754;SDS011;2391;47.212;7.542;2023-01-23T00:38:25;2.27;;;2.17;;
4754;SDS011;2391;47.212;7.542;2023-01-23T00:40:51;3.07;;;2.87;;
4754;SDS011;2391;47.212;7.542;2023-01-23T00:43:19;2.83;;;2.63;;
4754;SDS011;2391;47.212;7.542;2023-01-23T00:45:46;3.23;;;2.93;;
4754;SDS011;2391;47.212;7.542;2023-01-23T00:48:12;2.60;;;2.40;;
4754;SDS011;2391;47.212;7.542;2023-01-23T00:50:37;2.50;;;2.30;;
4754;SDS011;2391;47.212;7.542;2023-01-23T00:53:03;2.30;;;2.10;;
4754;SDS011;2391;47.212;7.542;2023-01-23T00:55:29;5.00;;;2.10;;
4754;SDS011;2391;47.212;7.542;2023-01-23T00:57:55;1.97;;;1.87;;
4754;SDS011;2391;47.212;7.542;2023-01-23T01:00:20;2.87;;;2.67;;
4754;SDS011;2391;47.212;7.542;2023-01-23T01:02:46;2.30;;;2.10;;
4754;SDS011;2391;47.212;7.542;2023-01-23T01:05:12;2.40;;;2.20;;
4754;SDS011;2391;47.212;7.542;2023-01-23T01:07:38;2.93;;;2.73;;
4754;SDS011;2391;47.212;7.542;2023-01-23T01:10:04;2.33;;;2.13;;
4754;SDS011;2391;47.212;7.542;2023-01-23T01:12:30;2.57;;;2.37;;
4754;SDS011;2391;47.212;7.542;2023-01-23T01:14:56;2.50;;;2.30;;
4754;SDS011;2391;47.212;7.542;2023-01-23T01:17:22;2.43;;;2.33;;
4754;SDS011;2391;47.212;7.542;2023-01-23T01:19:48;2.33;;;2.17;;
4754;SDS011;2391;47.212;7.542;2023-01-23T01:22:13;2.67;;;2.47;;
4754;SDS011;2391;47.212;7.542;2023-01-23T01:24:42;2.67;;;2.40;;
4754;SDS011;2391;47.212;7.542;2023-01-23T01:27:08;3.50;;;2.60;;
4754;SDS011;2391;47.212;7.542;2023-01-23T01:29:37;2.63;;;2.43;;
4754;SDS011;2391;47.212;7.542;2023-01-23T01:32:02;2.30;;;2.20;;
4754;SDS011;2391;47.212;7.542;2023-01-23T01:34:29;2.00;;;1.90;;
4754;SDS011;2391;47.212;7.542;2023-01-23T01:36:55;2.13;;;2.03;;
4754;SDS011;2391;47.212;7.542;2023-01-23T01:39:20;2.20;;;2.10;;
4754;SDS011;2391;47.212;7.542;2023-01-23T01:41:46;1.80;;;1.70;;
4754;SDS011;2391;47.212;7.542;2023-01-23T01:44:14;1.90;;;1.80;;
4754;SDS011;2391;47.212;7.542;2023-01-23T01:46:42;1.50;;;1.40;;
4754;SDS011;2391;47.212;7.542;2023-01-23T01:49:14;2.10;;;1.80;;
4754;SDS011;2391;47.212;7.542;2023-01-23T01:51:46;2.53;;;2.20;;
4754;SDS011;2391;47.212;7.542;2023-01-23T01:59:58;1.90;;;1.80;;
4754;SDS011;2391;47.212;7.542;2023-01-23T02:02:27;2.13;;;1.90;;
4754;SDS011;2391;47.212;7.542;2023-01-23T02:05:02;1.93;;;1.83;;
4754;SDS011;2391;47.212;7.542;2023-01-23T02:07:32;1.60;;;1.50;;
4754;SDS011;2391;47.212;7.542;2023-01-23T02:10:01;1.50;;;1.40;;
4754;SDS011;2391;47.212;7.542;2023-01-23T02:12:30;1.77;;;1.67;;
4754;SDS011;2391;47.212;7.542;2023-01-23T02:14:58;1.77;;;1.67;;
4754;SDS011;2391;47.212;7.542;2023-01-23T02:17:24;1.70;;;1.60;;
4754;SDS011;2391;47.212;7.542;2023-01-23T02:19:57;1.93;;;1.70;;
4754;SDS011;2391;47.212;7.542;2023-01-23T02:22:34;3.27;;;2.10;;
4754;SDS011;2391;47.212;7.542;2023-01-23T02:25:03;2.47;;;2.30;;
4754;SDS011;2391;47.212;7.542;2023-01-23T02:27:33;4.30;;;2.90;;
4754;SDS011;2391;47.212;7.542;2023-01-23T02:29:59;3.70;;;3.40;;
4754;SDS011;2391;47.212;7.542;2023-01-23T02:32:25;3.20;;;2.90;;
4754;SDS011;2391;47.212;7.542;2023-01-23T02:34:53;4.27;;;3.80;;
4754;SDS011;2391;47.212;7.542;2023-01-23T02:37:21;5.90;;;3.50;;
4754;SDS011;2391;47.212;7.542;2023-01-23T02:39:52;5.83;;;4.40;;
4754;SDS011;2391;47.212;7.542;2023-01-23T02:42:18;3.80;;;3.20;;
4754;SDS011;2391;47.212;7.542;2023-01-23T02:44:46;3.80;;;3.37;;
4754;SDS011;2391;47.212;7.542;2023-01-23T02:47:12;5.53;;;3.97;;
4754;SDS011;2391;47.212;7.542;2023-01-23T02:49:38;4.67;;;3.67;;
4754;SDS011;2391;47.212;7.542;2023-01-23T02:52:05;4.23;;;3.70;;
4754;SDS011;2391;47.212;7.542;2023-01-23T02:54:31;3.33;;;3.07;;
4754;SDS011;2391;47.212;7.542;2023-01-23T02:56:57;3.73;;;3.40;;
4754;SDS011;2391;47.212;7.542;2023-01-23T02:59:23;3.80;;;3.40;;
4754;SDS011;2391;47.212;7.542;2023-01-23T03:02:07;4.20;;;3.30;;
4754;SDS011;2391;47.212;7.542;2023-01-23T03:04:34;4.00;;;3.53;;
4754;SDS011;2391;47.212;7.542;2023-01-23T03:07:00;3.93;;;3.30;;
4754;SDS011;2391;47.212;7.542;2023-01-23T03:09:26;3.00;;;2.73;;
4754;SDS011;2391;47.212;7.542;2023-01-23T03:11:52;2.83;;;2.63;;
4754;SDS011;2391;47.212;7.542;2023-01-23T03:14:19;4.57;;;3.00;;
4754;SDS011;2391;47.212;7.542;2023-01-23T03:16:46;3.07;;;2.87;;
4754;SDS011;2391;47.212;7.542;2023-01-23T03:19:14;3.33;;;3.03;;
4754;SDS011;2391;47.212;7.542;2023-01-23T03:21:40;1.70;;;1.47;;
4754;SDS011;2391;47.212;7.542;2023-01-23T03:24:07;1.80;;;1.70;;
4754;SDS011;2391;47.212;7.542;2023-01-23T03:26:36;2.43;;;2.33;;
4754;SDS011;2391;47.212;7.542;2023-01-23T03:29:03;3.10;;;2.10;;
4754;SDS011;2391;47.212;7.542;2023-01-23T03:31:48;1.47;;;1.37;;
4754;SDS011;2391;47.212;7.542;2023-01-23T03:34:13;2.03;;;1.93;;
4754;SDS011;2391;47.212;7.542;2023-01-23T03:36:41;2.63;;;2.20;;
4754;SDS011;2391;47.212;7.542;2023-01-23T03:39:07;2.13;;;1.73;;
4754;SDS011;2391;47.212;7.542;2023-01-23T03:41:52;2.50;;;2.30;;
4754;SDS011;2391;47.212;7.542;2023-01-23T03:44:19;2.40;;;2.30;;
4754;SDS011;2391;47.212;7.542;2023-01-23T03:46:49;2.60;;;2.40;;
4754;SDS011;2391;47.212;7.542;2023-01-23T03:49:16;1.63;;;1.53;;
4754;SDS011;2391;47.212;7.542;2023-01-23T03:51:42;2.87;;;2.67;;
4754;SDS011;2391;47.212;7.542;2023-01-23T03:54:09;3.00;;;2.80;;
4754;SDS011;2391;47.212;7.542;2023-01-23T03:56:35;3.57;;;3.20;;
4754;SDS011;2391;47.212;7.542;2023-01-23T03:59:02;4.40;;;3.30;;
4754;SDS011;2391;47.212;7.542;2023-01-23T04:01:28;4.20;;;3.50;;
4754;SDS011;2391;47.212;7.542;2023-01-23T04:03:53;3.53;;;3.07;;
4754;SDS011;2391;47.212;7.542;2023-01-23T04:06:19;3.40;;;3.17;;
4754;SDS011;2391;47.212;7.542;2023-01-23T04:08:45;3.30;;;3.00;;
4754;SDS011;2391;47.212;7.542;2023-01-23T04:11:11;4.50;;;4.20;;
4754;SDS011;2391;47.212;7.542;2023-01-23T04:13:37;4.30;;;3.73;;
4754;SDS011;2391;47.212;7.542;2023-01-23T04:16:04;3.47;;;3.20;;
4754;SDS011;2391;47.212;7.542;2023-01-23T04:18:30;2.90;;;2.70;;
4754;SDS011;2391;47.212;7.542;2023-01-23T04:20:56;3.20;;;2.90;;
4754;SDS011;2391;47.212;7.542;2023-01-23T04:23:22;2.80;;;2.60;;
4754;SDS011;2391;47.212;7.542;2023-01-23T04:25:49;3.10;;;2.77;;
4754;SDS011;2391;47.212;7.542;2023-01-23T04:28:15;2.20;;;2.10;;
4754;SDS011;2391;47.212;7.542;2023-01-23T04:30:42;2.80;;;2.60;;
4754;SDS011;2391;47.212;7.542;2023-01-23T04:33:09;3.20;;;2.90;;
4754;SDS011;2391;47.212;7.542;2023-01-23T04:35:34;2.30;;;2.10;;
4754;SDS011;2391;47.212;7.542;2023-01-23T04:38:00;3.00;;;2.70;;
4754;SDS011;2391;47.212;7.542;2023-01-23T04:40:26;2.80;;;2.60;;
4754;SDS011;2391;47.212;7.542;2023-01-23T04:42:52;2.80;;;2.60;;
4754;SDS011;2391;47.212;7.542;2023-01-23T04:45:18;2.90;;;2.60;;
4754;SDS011;2391;47.212;7.542;2023-01-23T04:47:44;3.83;;;3.50;;
4754;SDS011;2391;47.212;7.542;2023-01-23T04:50:10;2.37;;;2.27;;
4754;SDS011;2391;47.212;7.542;2023-01-23T04:52:36;3.20;;;2.90;;
4754;SDS011;2391;47.212;7.542;2023-01-23T04:55:02;3.40;;;3.20;;
4754;SDS011;2391;47.212;7.542;2023-01-23T04:57:28;4.00;;;3.50;;
4754;SDS011;2391;47.212;7.542;2023-01-23T04:59:54;2.90;;;2.70;;
4754;SDS011;2391;47.212;7.542;2023-01-23T05:02:20;3.67;;;3.20;;
4754;SDS011;2391;47.212;7.542;2023-01-23T05:04:46;3.23;;;2.93;;
4754;SDS011;2391;47.212;7.542;2023-01-23T05:07:12;2.83;;;2.63;;
4754;SDS011;2391;47.212;7.542;2023-01-23T05:09:38;3.80;;;3.40;;
4754;SDS011;2391;47.212;7.542;2023-01-23T05:12:04;1.73;;;1.63;;
4754;SDS011;2391;47.212;7.542;2023-01-23T05:14:30;3.60;;;3.30;;
4754;SDS011;2391;47.212;7.542;2023-01-23T05:16:56;3.00;;;2.80;;
4754;SDS011;2391;47.212;7.542;2023-01-23T05:19:22;3.17;;;2.50;;
4754;SDS011;2391;47.212;7.542;2023-01-23T05:21:48;3.40;;;2.90;;
4754;SDS011;2391;47.212;7.542;2023-01-23T05:24:13;3.33;;;3.03;;
4754;SDS011;2391;47.212;7.542;2023-01-23T05:26:39;3.50;;;3.20;;
4754;SDS011;2391;47.212;7.542;2023-01-23T05:29:05;2.00;;;1.80;;
4754;SDS011;2391;47.212;7.542;2023-01-23T05:31:31;2.20;;;2.07;;
4754;SDS011;2391;47.212;7.542;2023-01-23T05:33:57;2.50;;;2.30;;
4754;SDS011;2391;47.212;7.542;2023-01-23T05:36:22;1.40;;;1.30;;
4754;SDS011;2391;47.212;7.542;2023-01-23T05:38:48;1.73;;;1.63;;
4754;SDS011;2391;47.212;7.542;2023-01-23T05:41:14;2.23;;;2.10;;
4754;SDS011;2391;47.212;7.542;2023-01-23T05:43:39;2.03;;;1.93;;
4754;SDS011;2391;47.212;7.542;2023-01-23T05:46:05;2.27;;;2.00;;
4754;SDS011;2391;47.212;7.542;2023-01-23T05:48:31;2.23;;;2.13;;
4754;SDS011;2391;47.212;7.542;2023-01-23T05:50:57;2.13;;;1.97;;
4754;SDS011;2391;47.212;7.542;2023-01-23T05:53:23;2.57;;;2.37;;
4754;SDS011;2391;47.212;7.542;2023-01-23T05:55:48;2.87;;;2.27;;
4754;SDS011;2391;47.212;7.542;2023-01-23T05:58:14;1.80;;;1.70;;
4754;SDS011;2391;47.212;7.542;2023-01-23T06:00:40;1.90;;;1.80;;
4754;SDS011;2391;47.212;7.542;2023-01-23T06:03:05;2.23;;;2.03;;
4754;SDS011;2391;47.212;7.542;2023-01-23T06:05:31;1.80;;;1.70;;
4754;SDS011;2391;47.212;7.542;2023-01-23T06:07:57;2.17;;;2.07;;
4754;SDS011;2391;47.212;7.542;2023-01-23T06:10:23;2.00;;;1.90;;
4754;SDS011;2391;47.212;7.542;2023-01-23T06:12:48;2.67;;;2.47;;
4754;SDS011;2391;47.212;7.542;2023-01-23T06:15:14;2.53;;;2.30;;
4754;SDS011;2391;47.212;7.542;2023-01-23T06:17:40;1.87;;;1.77;;
4754;SDS011;2391;47.212;7.542;2023-01-23T06:20:06;2.20;;;2.00;;
4754;SDS011;2391;47.212;7.542;2023-01-23T06:22:32;2.60;;;2.40;;
4754;SDS011;2391;47.212;7.542;2023-01-23T06:24:58;2.53;;;2.33;;
4754;SDS011;2391;47.212;7.542;2023-01-23T06:27:24;2.07;;;1.97;;
4754;SDS011;2391;47.212;7.542;2023-01-23T06:29:49;2.83;;;2.53;;
4754;SDS011;2391;47.212;7.542;2023-01-23T06:32:15;2.50;;;2.30;;
4754;SDS011;2391;47.212;7.542;2023-01-23T06:34:41;2.60;;;2.40;;
4754;SDS011;2391;47.212;7.542;2023-01-23T06:37:07;2.07;;;1.97;;
4754;SDS011;2391;47.212;7.542;2023-01-23T06:39:33;2.33;;;2.13;;
4754;SDS011;2391;47.212;7.542;2023-01-23T06:41:58;1.60;;;1.50;;
4754;SDS011;2391;47.212;7.542;2023-01-23T06:44:24;1.37;;;1.27;;
4754;SDS011;2391;47.212;7.542;2023-01-23T06:46:53;6.90;;;2.17;;
4754;SDS011;2391;47.212;7.542;2023-01-23T06:49:19;3.37;;;1.97;;
4754;SDS011;2391;47.212;7.542;2023-01-23T06:51:44;2.03;;;1.93;;
4754;SDS011;2391;47.212;7.542;2023-01-23T06:54:10;2.30;;;2.20;;
4754;SDS011;2391;47.212;7.542;2023-01-23T06:56:36;2.40;;;2.20;;
4754;SDS011;2391;47.212;7.542;2023-01-23T06:59:02;1.60;;;1.50;;
4754;SDS011;2391;47.212;7.542;2023-01-23T07:01:27;3.33;;;3.03;;
4754;SDS011;2391;47.212;7.542;2023-01-23T07:03:53;3.37;;;3.07;;
4754;SDS011;2391;47.212;7.542;2023-01-23T07:06:19;3.63;;;3.07;;
4754;SDS011;2391;47.212;7.542;2023-01-23T07:08:45;2.13;;;2.03;;
4754;SDS011;2391;47.212;7.542;2023-01-23T07:11:11;5.07;;;3.03;;
4754;SDS011;2391;47.212;7.542;2023-01-23T07:13:36;2.60;;;2.40;;
4754;SDS011;2391;47.212;7.542;2023-01-23T07:16:02;3.93;;;3.23;;
4754;SDS011;2391;47.212;7.542;2023-01-23T07:18:29;3.57;;;2.20;;
4754;SDS011;2391;47.212;7.542;2023-01-23T07:20:56;3.50;;;3.17;;
4754;SDS011;2391;47.212;7.542;2023-01-23T07:23:22;2.73;;;2.30;;
4754;SDS011;2391;47.212;7.542;2023-01-23T07:25:48;2.53;;;2.33;;
4754;SDS011;2391;47.212;7.542;2023-01-23T07:28:15;4.23;;;3.30;;
4754;SDS011;2391;47.212;7.542;2023-01-23T07:30:40;3.90;;;3.60;;
4754;SDS011;2391;47.212;7.542;2023-01-23T07:33:06;3.57;;;3.27;;
4754;SDS011;2391;47.212;7.542;2023-01-23T07:35:32;3.77;;;3.20;;
4754;SDS011;2391;47.212;7.542;2023-01-23T07:37:58;2.50;;;2.40;;
4754;SDS011;2391;47.212;7.542;2023-01-23T07:40:24;10.57;;;2.47;;
4754;SDS011;2391;47.212;7.542;2023-01-23T07:42:49;2.70;;;2.50;;
4754;SDS011;2391;47.212;7.542;2023-01-23T07:45:15;3.50;;;2.90;;
4754;SDS011;2391;47.212;7.542;2023-01-23T07:47:41;2.20;;;2.10;;
4754;SDS011;2391;47.212;7.542;2023-01-23T07:50:08;2.63;;;2.10;;
4754;SDS011;2391;47.212;7.542;2023-01-23T07:52:36;3.07;;;2.77;;
4754;SDS011;2391;47.212;7.542;2023-01-23T07:55:02;3.83;;;3.07;;
4754;SDS011;2391;47.212;7.542;2023-01-23T07:57:28;3.67;;;3.33;;
4754;SDS011;2391;47.212;7.542;2023-01-23T07:59:54;2.73;;;2.53;;
4754;SDS011;2391;47.212;7.542;2023-01-23T08:02:20;2.07;;;1.80;;
4754;SDS011;2391;47.212;7.542;2023-01-23T08:04:46;3.93;;;2.50;;
4754;SDS011;2391;47.212;7.542;2023-01-23T08:07:12;2.97;;;2.77;;
4754;SDS011;2391;47.212;7.542;2023-01-23T08:09:38;4.57;;;3.07;;
4754;SDS011;2391;47.212;7.542;2023-01-23T08:12:04;1.90;;;1.80;;
4754;SDS011;2391;47.212;7.542;2023-01-23T08:14:30;3.33;;;3.13;;
4754;SDS011;2391;47.212;7.542;2023-01-23T08:16:57;3.93;;;3.37;;
4754;SDS011;2391;47.212;7.542;2023-01-23T08:19:22;3.27;;;2.93;;
4754;SDS011;2391;47.212;7.542;2023-01-23T08:21:50;3.40;;;3.03;;
4754;SDS011;2391;47.212;7.542;2023-01-23T08:24:16;3.30;;;3.00;;
4754;SDS011;2391;47.212;7.542;2023-01-23T08:26:42;3.37;;;3.07;;
4754;SDS011;2391;47.212;7.542;2023-01-23T08:29:08;5.93;;;4.10;;
4754;SDS011;2391;47.212;7.542;2023-01-23T08:31:35;5.13;;;4.23;;
4754;SDS011;2391;47.212;7.542;2023-01-23T08:34:01;2.57;;;2.37;;
4754;SDS011;2391;47.212;7.542;2023-01-23T08:36:27;4.10;;;3.67;;
4754;SDS011;2391;47.212;7.542;2023-01-23T08:38:53;5.30;;;4.50;;
4754;SDS011;2391;47.212;7.542;2023-01-23T08:41:20;4.97;;;4.33;;
4754;SDS011;2391;47.212;7.542;2023-01-23T08:43:48;4.47;;;4.03;;
4754;SDS011;2391;47.212;7.542;2023-01-23T08:46:14;6.23;;;4.27;;
4754;SDS011;2391;47.212;7.542;2023-01-23T08:48:40;5.50;;;4.33;;
4754;SDS011;2391;47.212;7.542;2023-01-23T08:51:08;3.83;;;3.50;;
4754;SDS011;2391;47.212;7.542;2023-01-23T08:53:36;4.70;;;4.27;;
4754;SDS011;2391;47.212;7.542;2023-01-23T08:56:04;5.30;;;4.00;;
4754;SDS011;2391;47.212;7.542;2023-01-23T08:58:32;6.43;;;5.10;;
4754;SDS011;2391;47.212;7.542;2023-01-23T09:00:58;5.90;;;5.13;;
4754;SDS011;2391;47.212;7.542;2023-01-23T09:03:24;4.80;;;3.50;;
4754;SDS011;2391;47.212;7.542;2023-01-23T09:05:51;5.23;;;4.40;;
4754;SDS011;2391;47.212;7.542;2023-01-23T09:08:17;5.97;;;4.60;;
4754;SDS011;2391;47.212;7.542;2023-01-23T09:10:42;6.00;;;4.20;;
4754;SDS011;2391;47.212;7.542;2023-01-23T09:13:08;6.17;;;4.20;;
4754;SDS011;2391;47.212;7.542;2023-01-23T09:15:36;4.73;;;3.90;;
4754;SDS011;2391;47.212;7.542;2023-01-23T09:18:03;6.60;;;4.67;;
4754;SDS011;2391;47.212;7.542;2023-01-23T09:20:30;4.57;;;3.70;;
4754;SDS011;2391;47.212;7.542;2023-01-23T09:22:56;5.43;;;4.90;;
4754;SDS011;2391;47.212;7.542;2023-01-23T09:25:22;7.23;;;4.47;;
4754;SDS011;2391;47.212;7.542;2023-01-23T09:27:47;5.73;;;3.93;;
4754;SDS011;2391;47.212;7.542;2023-01-23T09:30:13;5.90;;;4.90;;
4754;SDS011;2391;47.212;7.542;2023-01-23T09:32:40;5.10;;;4.60;;
4754;SDS011;2391;47.212;7.542;2023-01-23T09:35:05;4.97;;;3.67;;
4754;SDS011;2391;47.212;7.542;2023-01-23T09:37:32;4.40;;;3.70;;
4754;SDS011;2391;47.212;7.542;2023-01-23T09:39:59;5.87;;;5.07;;
4754;SDS011;2391;47.212;7.542;2023-01-23T09:42:28;4.30;;;3.27;;
4754;SDS011;2391;47.212;7.542;2023-01-23T09:44:56;6.40;;;4.30;;
4754;SDS011;2391;47.212;7.542;2023-01-23T09:47:35;2.33;;;1.90;;
4754;SDS011;2391;47.212;7.542;2023-01-23T09:50:30;5.13;;;3.77;;
4754;SDS011;2391;47.212;7.542;2023-01-23T09:53:05;5.67;;;4.20;;
4754;SDS011;2391;47.212;7.542;2023-01-23T09:58:10;3.60;;;3.30;;
4754;SDS011;2391;47.212;7.542;2023-01-23T10:00:37;2.47;;;1.47;;
4754;SDS011;2391;47.212;7.542;2023-01-23T10:03:09;3.30;;;2.97;;
4754;SDS011;2391;47.212;7.542;2023-01-23T10:22:09;5.10;;;4.23;;
4754;SDS011;2391;47.212;7.542;2023-01-23T10:24:50;4.37;;;3.70;;
4754;SDS011;2391;47.212;7.542;2023-01-23T10:27:20;3.30;;;2.50;;
4754;SDS011;2391;47.212;7.542;2023-01-23T10:30:31;5.77;;;4.83;;
4754;SDS011;2391;47.212;7.542;2023-01-23T10:32:24;5.07;;;3.53;;
4754;SDS011;2391;47.212;7.542;2023-01-23T10:34:54;5.20;;;3.43;;
4754;SDS011;2391;47.212;7.542;2023-01-23T10:42:36;5.50;;;4.83;;
4754;SDS011;2391;47.212;7.542;2023-01-23T10:45:03;6.83;;;4.10;;
4754;SDS011;2391;47.212;7.542;2023-01-23T10:47:36;6.77;;;5.77;;
4754;SDS011;2391;47.212;7.542;2023-01-23T10:50:11;5.70;;;4.43;;
4754;SDS011;2391;47.212;7.542;2023-01-23T10:52:41;5.63;;;4.87;;
4754;SDS011;2391;47.212;7.542;2023-01-23T10:57:48;5.93;;;3.10;;
4754;SDS011;2391;47.212;7.542;2023-01-23T11:05:54;7.23;;;5.47;;
4754;SDS011;2391;47.212;7.542;2023-01-23T11:14:05;5.27;;;4.00;;
4754;SDS011;2391;47.212;7.542;2023-01-23T11:16:33;8.37;;;5.40;;
4754;SDS011;2391;47.212;7.542;2023-01-23T11:21:49;5.77;;;4.10;;
4754;SDS011;2391;47.212;7.542;2023-01-23T11:27:03;7.00;;;5.23;;
4754;SDS011;2391;47.212;7.542;2023-01-23T11:29:27;6.50;;;4.57;;
4754;SDS011;2391;47.212;7.542;2023-01-23T11:32:05;6.43;;;4.33;;
4754;SDS011;2391;47.212;7.542;2023-01-23T11:34:39;9.70;;;6.47;;
4754;SDS011;2391;47.212;7.542;2023-01-23T11:37:11;7.47;;;5.13;;
4754;SDS011;2391;47.212;7.542;2023-01-23T11:39:47;3.87;;;2.23;;
4754;SDS011;2391;47.212;7.542;2023-01-23T11:42:12;7.27;;;4.07;;
4754;SDS011;2391;47.212;7.542;2023-01-23T11:44:40;8.53;;;5.60;;
4754;SDS011;2391;47.212;7.542;2023-01-23T11:53:12;9.10;;;5.33;;
4754;SDS011;2391;47.212;7.542;2023-01-23T12:21:10;7.27;;;5.03;;
4754;SDS011;2391;47.212;7.542;2023-01-23T12:26:34;4.50;;;3.97;;
4754;SDS011;2391;47.212;7.542;2023-01-23T12:40:05;7.03;;;4.80;;
4754;SDS011;2391;47.212;7.542;2023-01-23T12:42:49;7.47;;;5.00;;
4754;SDS011;2391;47.212;7.542;2023-01-23T12:45:19;8.30;;;3.97;;
4754;SDS011;2391;47.212;7.542;2023-01-23T12:53:23;5.83;;;4.63;;
4754;SDS011;2391;47.212;7.542;2023-01-23T12:56:04;9.50;;;5.60;;
4754;SDS011;2391;47.212;7.542;2023-01-23T12:58:36;7.60;;;4.57;;
4754;SDS011;2391;47.212;7.542;2023-01-23T13:04:10;7.40;;;5.13;;
4754;SDS011;2391;47.212;7.542;2023-01-23T13:12:33;6.93;;;4.93;;
4754;SDS011;2391;47.212;7.542;2023-01-23T13:17:49;7.40;;;4.87;;
4754;SDS011;2391;47.212;7.542;2023-01-23T13:20:33;4.23;;;2.97;;
4754;SDS011;2391;47.212;7.542;2023-01-23T13:28:49;5.60;;;4.23;;
4754;SDS011;2391;47.212;7.542;2023-01-23T13:31:26;4.03;;;3.00;;
4754;SDS011;2391;47.212;7.542;2023-01-23T13:36:45;5.63;;;4.20;;
4754;SDS011;2391;47.212;7.542;2023-01-23T13:41:48;4.17;;;3.77;;
4754;SDS011;2391;47.212;7.542;2023-01-23T13:44:26;6.13;;;3.77;;
4754;SDS011;2391;47.212;7.542;2023-01-23T13:47:01;6.33;;;4.87;;
4754;SDS011;2391;47.212;7.542;2023-01-23T13:52:19;3.97;;;3.27;;
4754;SDS011;2391;47.212;7.542;2023-01-23T13:55:14;7.47;;;5.10;;
4754;SDS011;2391;47.212;7.542;2023-01-23T13:58:01;3.30;;;3.00;;
4754;SDS011;2391;47.212;7.542;2023-01-23T14:00:29;6.80;;;4.90;;
4754;SDS011;2391;47.212;7.542;2023-01-23T14:06:09;3.73;;;3.37;;
4754;SDS011;2391;47.212;7.542;2023-01-23T14:08:33;3.27;;;2.93;;
4754;SDS011;2391;47.212;7.542;2023-01-23T14:11:01;6.20;;;4.63;;
4754;SDS011;2391;47.212;7.542;2023-01-23T14:13:27;5.90;;;4.43;;
4754;SDS011;2391;47.212;7.542;2023-01-23T14:15:53;4.57;;;3.87;;
4754;SDS011;2391;47.212;7.542;2023-01-23T14:18:45;3.70;;;2.83;;
4754;SDS011;2391;47.212;7.542;2023-01-23T14:21:18;7.10;;;3.87;;
4754;SDS011;2391;47.212;7.542;2023-01-23T14:23:52;6.20;;;4.70;;
4754;SDS011;2391;47.212;7.542;2023-01-23T14:26:27;7.70;;;6.23;;
4754;SDS011;2391;47.212;7.542;2023-01-23T14:31:22;6.37;;;4.93;;
4754;SDS011;2391;47.212;7.542;2023-01-23T14:33:49;4.20;;;3.70;;
4754;SDS011;2391;47.212;7.542;2023-01-23T14:36:17;4.63;;;3.70;;
4754;SDS011;2391;47.212;7.542;2023-01-23T14:38:44;9.00;;;6.33;;
4754;SDS011;2391;47.212;7.542;2023-01-23T14:41:13;6.37;;;4.40;;
4754;SDS011;2391;47.212;7.542;2023-01-23T14:43:40;10.60;;;6.27;;
4754;SDS011;2391;47.212;7.542;2023-01-23T14:46:13;7.53;;;5.20;;
4754;SDS011;2391;47.212;7.542;2023-01-23T14:48:37;9.00;;;6.43;;
4754;SDS011;2391;47.212;7.542;2023-01-23T14:51:07;9.03;;;5.67;;
4754;SDS011;2391;47.212;7.542;2023-01-23T14:53:38;10.23;;;6.07;;
4754;SDS011;2391;47.212;7.542;2023-01-23T14:56:06;11.60;;;6.80;;
4754;SDS011;2391;47.212;7.542;2023-01-23T14:58:34;10.70;;;6.60;;
4754;SDS011;2391;47.212;7.542;2023-01-23T15:01:02;8.43;;;4.70;;
4754;SDS011;2391;47.212;7.542;2023-01-23T15:03:35;8.20;;;5.80;;
4754;SDS011;2391;47.212;7.542;2023-01-23T15:06:07;10.07;;;6.53;;
4754;SDS011;2391;47.212;7.542;2023-01-23T15:08:38;5.00;;;2.90;;
4754;SDS011;2391;47.212;7.542;2023-01-23T15:11:05;5.33;;;3.40;;
4754;SDS011;2391;47.212;7.542;2023-01-23T15:13:44;8.40;;;5.90;;
4754;SDS011;2391;47.212;7.542;2023-01-23T15:16:17;14.83;;;6.97;;
4754;SDS011;2391;47.212;7.542;2023-01-23T15:18:55;12.00;;;6.17;;
4754;SDS011;2391;47.212;7.542;2023-01-23T15:21:39;14.23;;;6.63;;
4754;SDS011;2391;47.212;7.542;2023-01-23T15:26:36;7.70;;;5.50;;
4754;SDS011;2391;47.212;7.542;2023-01-23T15:39:37;10.30;;;6.87;;
4754;SDS011;2391;47.212;7.542;2023-01-23T15:41:59;10.87;;;7.00;;
4754;SDS011;2391;47.212;7.542;2023-01-23T15:44:28;13.07;;;7.87;;
4754;SDS011;2391;47.212;7.542;2023-01-23T15:46:56;5.47;;;3.80;;
4754;SDS011;2391;47.212;7.542;2023-01-23T15:49:27;11.40;;;6.93;;
4754;SDS011;2391;47.212;7.542;2023-01-23T15:51:59;11.40;;;7.50;;
4754;SDS011;2391;47.212;7.542;2023-01-23T15:54:27;10.40;;;6.73;;
4754;SDS011;2391;47.212;7.542;2023-01-23T15:56:58;10.13;;;5.90;;
4754;SDS011;2391;47.212;7.542;2023-01-23T15:59:25;11.27;;;7.30;;
4754;SDS011;2391;47.212;7.542;2023-01-23T16:01:51;10.13;;;6.07;;
4754;SDS011;2391;47.212;7.542;2023-01-23T16:04:17;9.93;;;6.67;;
4754;SDS011;2391;47.212;7.542;2023-01-23T16:06:43;12.47;;;6.80;;
4754;SDS011;2391;47.212;7.542;2023-01-23T16:09:21;14.30;;;7.17;;
4754;SDS011;2391;47.212;7.542;2023-01-23T16:11:45;13.07;;;7.17;;
4754;SDS011;2391;47.212;7.542;2023-01-23T16:14:13;9.70;;;6.30;;
4754;SDS011;2391;47.212;7.542;2023-01-23T16:16:40;13.07;;;8.00;;
4754;SDS011;2391;47.212;7.542;2023-01-23T16:19:06;16.57;;;9.27;;
4754;SDS011;2391;47.212;7.542;2023-01-23T16:21:31;10.47;;;5.87;;
4754;SDS011;2391;47.212;7.542;2023-01-23T16:23:57;8.50;;;5.70;;
4754;SDS011;2391;47.212;7.542;2023-01-23T16:26:24;10.00;;;6.90;;
4754;SDS011;2391;47.212;7.542;2023-01-23T16:28:52;13.10;;;7.20;;
4754;SDS011;2391;47.212;7.542;2023-01-23T16:31:18;10.33;;;6.00;;
4754;SDS011;2391;47.212;7.542;2023-01-23T16:33:45;9.87;;;6.10;;
4754;SDS011;2391;47.212;7.542;2023-01-23T16:36:14;12.57;;;8.80;;
4754;SDS011;2391;47.212;7.542;2023-01-23T16:38:42;12.67;;;7.33;;
4754;SDS011;2391;47.212;7.542;2023-01-23T16:41:11;11.90;;;7.30;;
4754;SDS011;2391;47.212;7.542;2023-01-23T16:43:37;10.37;;;5.60;;
4754;SDS011;2391;47.212;7.542;2023-01-23T16:46:02;14.03;;;6.77;;
4754;SDS011;2391;47.212;7.542;2023-01-23T16:48:28;13.37;;;6.37;;
4754;SDS011;2391;47.212;7.542;2023-01-23T16:50:56;7.00;;;4.23;;
4754;SDS011;2391;47.212;7.542;2023-01-23T16:53:24;10.67;;;6.33;;
4754;SDS011;2391;47.212;7.542;2023-01-23T16:55:53;11.30;;;7.00;;
4754;SDS011;2391;47.212;7.542;2023-01-23T16:58:22;11.83;;;6.60;;
4754;SDS011;2391;47.212;7.542;2023-01-23T17:00:50;12.57;;;7.00;;
4754;SDS011;2391;47.212;7.542;2023-01-23T17:03:23;11.57;;;7.10;;
4754;SDS011;2391;47.212;7.542;2023-01-23T17:05:51;11.73;;;6.17;;
4754;SDS011;2391;47.212;7.542;2023-01-23T17:08:21;10.17;;;5.70;;
4754;SDS011;2391;47.212;7.542;2023-01-23T17:10:49;13.00;;;7.73;;
4754;SDS011;2391;47.212;7.542;2023-01-23T17:13:18;13.20;;;6.97;;
4754;SDS011;2391;47.212;7.542;2023-01-23T17:15:46;12.33;;;7.83;;
4754;SDS011;2391;47.212;7.542;2023-01-23T17:18:20;7.73;;;4.53;;
4754;SDS011;2391;47.212;7.542;2023-01-23T17:20:49;13.77;;;7.93;;
4754;SDS011;2391;47.212;7.542;2023-01-23T17:23:15;11.50;;;7.10;;
4754;SDS011;2391;47.212;7.542;2023-01-23T17:25:40;9.67;;;6.50;;
4754;SDS011;2391;47.212;7.542;2023-01-23T17:28:08;8.57;;;5.77;;
4754;SDS011;2391;47.212;7.542;2023-01-23T17:30:34;13.70;;;7.47;;
4754;SDS011;2391;47.212;7.542;2023-01-23T17:33:00;12.07;;;7.60;;
4754;SDS011;2391;47.212;7.542;2023-01-23T17:35:34;11.43;;;7.30;;
4754;SDS011;2391;47.212;7.542;2023-01-23T17:37:58;9.87;;;5.90;;
4754;SDS011;2391;47.212;7.542;2023-01-23T17:40:25;12.10;;;6.83;;
4754;SDS011;2391;47.212;7.542;2023-01-23T17:42:51;9.00;;;5.87;;